createdAt,value
2022-11-15T00:00:01.285Z,95.00
2022-11-15T00:05:02.804Z,95.39
2022-11-15T00:10:04.846Z,94.98
2022-11-15T00:15:06.912Z,94.73
2022-11-15T00:20:08.962Z,94.71
2022-11-15T00:25:10.368Z,94.33
2022-11-15T00:30:12.389Z,95.01
2022-11-15T00:35:13.874Z,94.59
2022-11-15T00:40:16.103Z,94.49
2022-11-15T00:45:17.654Z,94.79
2022-11-15T00:50:19.712Z,94.31
2022-11-15T00:55:21.247Z,94.41
2022-11-15T01:00:22.868Z,93.64
2022-11-15T01:05:24.339Z,94.03
2022-11-15T01:10:26.886Z,93.57
2022-11-15T01:15:28.355Z,93.30
2022-11-15T01:20:29.853Z,92.93
2022-11-15T01:25:31.251Z,93.03
2022-11-15T01:30:32.911Z,92.60
2022-11-15T01:35:34.381Z,92.56
2022-11-15T01:40:35.875Z,92.47
2022-11-15T01:45:37.443Z,92.14
2022-11-15T01:50:39.033Z,92.06
2022-11-15T01:55:40.535Z,92.03
2022-11-15T02:00:42.264Z,92.00
2022-11-15T02:05:44.876Z,91.12
2022-11-15T02:10:49.602Z,91.51
2022-11-15T02:16:30.543Z,91.59
2022-11-15T02:22:00.491Z,91.17
2022-11-15T02:27:23.613Z,91.43
2022-11-15T02:32:42.115Z,92.17
2022-11-15T02:37:53.325Z,91.95
2022-11-15T02:43:16.994Z,91.63
2022-11-15T02:48:19.424Z,91.09
2022-11-15T02:53:26.338Z,90.56
2022-11-15T02:58:49.040Z,90.84
2022-11-15T03:03:56.341Z,90.56
2022-11-15T03:09:11.029Z,90.13
2022-11-15T03:14:35.305Z,90.58
2022-11-15T03:19:45.735Z,90.72
2022-11-15T03:24:53.103Z,90.59
2022-11-15T03:30:00.576Z,89.61
2022-11-15T03:35:12.760Z,89.88
2022-11-15T03:40:15.304Z,89.22
2022-11-15T03:45:23.397Z,89.26
2022-11-15T03:50:25.976Z,89.47
2022-11-15T03:55:27.478Z,89.77
2022-11-15T04:00:30.009Z,90.35
2022-11-15T04:05:31.449Z,90.16
2022-11-15T04:10:32.956Z,90.10
2022-11-15T04:15:34.784Z,89.98
2022-11-15T04:20:54.763Z,89.31
2022-11-15T04:25:59.156Z,89.96
2022-11-15T04:31:00.652Z,89.64
2022-11-15T04:36:20.774Z,89.71
2022-11-15T04:41:23.249Z,89.24
2022-11-15T04:46:25.332Z,89.73
2022-11-15T04:51:26.819Z,89.73
2022-11-15T04:56:28.300Z,89.07
2022-11-15T05:01:29.907Z,89.72
2022-11-15T05:06:31.768Z,90.08
2022-11-15T05:11:33.254Z,90.54
2022-11-15T05:16:34.867Z,90.14
2022-11-15T05:21:37.056Z,89.41
2022-11-15T05:26:38.498Z,89.15
2022-11-15T05:31:42.262Z,89.20
2022-11-15T05:36:46.687Z,89.14
2022-11-15T05:41:51.337Z,89.17
2022-11-15T05:46:55.320Z,88.41
2022-11-15T05:51:58.544Z,88.06
2022-11-15T05:57:00.906Z,88.13
2022-11-15T06:02:02.428Z,87.31
2022-11-15T06:07:03.956Z,88.08
2022-11-15T06:12:05.635Z,87.69
2022-11-15T06:17:11.200Z,87.67
2022-11-15T06:22:12.956Z,87.79
2022-11-15T06:27:14.390Z,87.64
2022-11-15T06:32:15.819Z,87.23
2022-11-15T06:37:17.249Z,87.90
2022-11-15T06:42:18.685Z,89.16
2022-11-15T06:47:20.143Z,89.53
2022-11-15T06:52:22.675Z,89.26
2022-11-15T06:57:24.070Z,89.36
2022-11-15T07:02:25.522Z,90.03
2022-11-15T07:07:27.178Z,89.89
2022-11-15T07:12:28.684Z,90.54
2022-11-15T07:17:30.117Z,90.10
2022-11-15T07:22:31.538Z,89.81
2022-11-15T07:27:33.369Z,89.12
2022-11-15T07:32:35.538Z,89.43
2022-11-15T07:37:36.955Z,88.80
2022-11-15T07:42:53.594Z,89.06
2022-11-15T07:47:56.847Z,88.21
2022-11-15T07:53:00.047Z,87.91
2022-11-15T07:58:03.071Z,87.58
2022-11-15T08:03:12.915Z,87.38
2022-11-15T08:08:14.369Z,85.60
2022-11-15T08:13:15.994Z,85.27
2022-11-15T08:18:17.852Z,85.25
2022-11-15T08:23:19.422Z,85.17
2022-11-15T08:28:20.815Z,84.48
2022-11-15T08:33:22.288Z,84.30
2022-11-15T08:38:24.122Z,83.38
2022-11-15T08:43:25.531Z,83.04
2022-11-15T08:48:27.154Z,83.61
2022-11-15T08:53:28.606Z,83.63
2022-11-15T08:58:30.260Z,84.00
2022-11-15T09:03:32.019Z,83.43
2022-11-15T09:08:46.955Z,83.33
2022-11-15T09:13:49.236Z,83.03
2022-11-15T09:18:50.903Z,82.64
2022-11-15T09:23:53.118Z,82.29
2022-11-15T09:28:54.569Z,81.28
2022-11-15T09:33:56.303Z,80.93
2022-11-15T09:38:59.239Z,80.21
2022-11-15T09:44:39.768Z,79.59
2022-11-15T09:49:41.214Z,78.47
2022-11-15T09:54:56.332Z,78.38
2022-11-15T10:00:46.015Z,76.71
2022-11-15T10:05:32.690Z,76.40
2022-11-15T10:10:39.486Z,75.97
2022-11-15T10:15:46.264Z,76.17
2022-11-15T10:21:00.897Z,76.56
2022-11-15T10:26:07.037Z,76.60
2022-11-15T10:31:26.523Z,76.48
2022-11-15T10:36:29.527Z,76.28
2022-11-15T10:41:38.186Z,76.59
2022-11-15T10:46:47.213Z,75.49
2022-11-15T10:51:51.985Z,75.73
2022-11-15T10:56:56.886Z,75.44
2022-11-15T11:01:58.769Z,74.66
2022-11-15T11:07:01.053Z,74.51
2022-11-15T11:12:04.286Z,74.78
2022-11-15T11:17:23.639Z,74.39
2022-11-15T11:22:39.394Z,74.55
2022-11-15T11:27:52.787Z,73.97
2022-11-15T11:33:02.502Z,73.99
2022-11-15T11:38:03.852Z,73.37
2022-11-15T11:43:23.729Z,73.07
2022-11-15T11:48:46.680Z,71.81
2022-11-15T11:54:02.265Z,71.01
2022-11-15T11:59:12.027Z,71.08
2022-11-15T12:04:28.023Z,71.38
2022-11-15T12:09:39.059Z,70.88
2022-11-15T12:14:52.877Z,70.48
2022-11-15T12:19:59.552Z,70.68
2022-11-15T12:25:06.072Z,69.99
2022-11-15T12:30:15.790Z,71.01
2022-11-15T12:35:36.327Z,70.52
2022-11-15T12:40:58.999Z,70.94
2022-11-15T12:46:05.443Z,71.07
2022-11-15T12:51:06.933Z,70.90
2022-11-15T12:56:15.876Z,71.35
2022-11-15T13:01:36.161Z,71.25
2022-11-15T13:06:41.464Z,71.29
2022-11-15T13:11:49.149Z,71.47
2022-11-15T13:16:59.882Z,72.27
2022-11-15T13:22:28.035Z,73.00
2022-11-15T13:27:29.956Z,73.28
2022-11-15T13:32:31.788Z,73.62
2022-11-15T13:37:34.437Z,73.97
2022-11-15T13:42:35.872Z,74.43
2022-11-15T13:47:37.296Z,74.54
2022-11-15T13:52:41.572Z,74.69
2022-11-15T13:57:46.708Z,75.21
2022-11-15T14:02:48.226Z,75.45
2022-11-15T14:08:14.329Z,76.10
2022-11-15T14:13:30.814Z,76.61
2022-11-15T14:18:43.474Z,76.93
2022-11-15T14:23:45.549Z,77.34
2022-11-15T14:28:47.000Z,77.75
2022-11-15T14:33:48.858Z,78.02
2022-11-15T14:38:50.386Z,78.34
2022-11-15T14:43:53.070Z,78.65
2022-11-15T14:48:54.652Z,78.65
2022-11-15T14:53:56.380Z,78.79
2022-11-15T14:58:59.488Z,79.21
2022-11-15T15:04:00.947Z,79.32
2022-11-15T15:09:02.776Z,80.08
2022-11-15T15:14:04.242Z,80.18
2022-11-15T15:19:05.681Z,80.57
2022-11-15T15:24:14.416Z,80.81
2022-11-15T15:29:16.360Z,81.37
2022-11-15T15:34:17.856Z,81.41
2022-11-15T15:39:19.264Z,81.83
2022-11-15T15:44:20.730Z,82.46
2022-11-15T15:49:22.214Z,82.43
2022-11-15T15:54:23.624Z,82.87
2022-11-15T15:59:25.172Z,83.33
2022-11-15T16:04:27.036Z,83.15
2022-11-15T16:09:46.984Z,83.74
2022-11-15T16:14:48.435Z,84.30
2022-11-15T16:19:49.861Z,84.74
2022-11-15T16:24:51.296Z,84.68
2022-11-15T16:29:52.705Z,84.72
2022-11-15T16:34:55.008Z,85.04
2022-11-15T16:40:00.840Z,85.24
2022-11-15T16:45:02.608Z,85.54
2022-11-15T16:50:04.321Z,85.51
2022-11-15T16:55:06.410Z,85.62
2022-11-15T17:00:11.679Z,85.42
2022-11-15T17:05:19.750Z,85.63
2022-11-15T17:10:23.537Z,85.62
2022-11-15T17:15:25.423Z,85.78
2022-11-15T17:20:26.968Z,85.74
2022-11-15T17:25:28.396Z,86.05
2022-11-15T17:30:29.814Z,86.39
2022-11-15T17:35:31.279Z,86.68
2022-11-15T17:40:32.765Z,85.88
2022-11-15T17:45:34.665Z,85.92
2022-11-15T17:50:37.228Z,85.41
2022-11-15T17:55:38.645Z,85.36
2022-11-15T18:00:40.285Z,85.71
2022-11-15T18:05:43.813Z,85.58
2022-11-15T18:10:45.246Z,85.48
2022-11-15T18:15:55.021Z,85.49
2022-11-15T18:21:07.296Z,85.49
2022-11-15T18:26:11.911Z,85.59
2022-11-15T18:31:21.745Z,85.46
2022-11-15T18:36:26.282Z,85.33
2022-11-15T18:41:28.901Z,85.34
2022-11-15T18:46:32.310Z,85.21
2022-11-15T18:51:35.400Z,85.16
2022-11-15T18:56:37.673Z,85.13
2022-11-15T19:01:40.874Z,84.90
2022-11-15T19:06:43.940Z,84.77
2022-11-15T19:11:47.127Z,84.77
2022-11-15T19:16:55.570Z,85.03
2022-11-15T19:21:59.585Z,85.88
2022-11-15T19:27:01.067Z,86.16
2022-11-15T19:32:03.933Z,86.48
2022-11-15T19:37:05.404Z,86.96
2022-11-15T19:42:06.853Z,87.71
2022-11-15T19:47:09.353Z,87.82
2022-11-15T19:52:10.824Z,88.06
2022-11-15T19:57:12.232Z,88.18
2022-11-15T20:02:13.689Z,88.24
2022-11-15T20:07:15.133Z,88.38
2022-11-15T20:12:16.668Z,88.60
2022-11-15T20:17:18.177Z,88.35
2022-11-15T20:22:19.572Z,88.63
2022-11-15T20:27:21.008Z,89.09
2022-11-15T20:32:22.536Z,89.11
2022-11-15T20:37:24.087Z,89.66
2022-11-15T20:42:25.489Z,89.83
2022-11-15T20:47:30.448Z,89.80
2022-11-15T20:52:31.892Z,90.17
2022-11-15T20:57:33.282Z,90.34
2022-11-15T21:02:34.781Z,90.09
2022-11-15T21:07:36.327Z,90.15
2022-11-15T21:12:37.888Z,90.38
2022-11-15T21:17:39.358Z,90.23
2022-11-15T21:22:40.984Z,90.27
2022-11-15T21:27:42.409Z,90.49
2022-11-15T21:32:44.989Z,90.87
2022-11-15T21:37:47.814Z,91.43
2022-11-15T21:42:51.136Z,91.46
2022-11-15T21:47:52.535Z,91.52
2022-11-15T21:52:53.956Z,91.79
2022-11-15T21:57:55.409Z,91.83
2022-11-15T22:02:56.833Z,91.43
2022-11-15T22:07:58.439Z,91.60
2022-11-15T22:13:00.086Z,92.16
2022-11-15T22:18:01.873Z,92.59
2022-11-15T22:23:04.555Z,92.67
2022-11-15T22:28:06.232Z,92.59
2022-11-15T22:33:08.015Z,93.01
2022-11-15T22:38:10.474Z,92.76
2022-11-15T22:43:13.606Z,92.44
2022-11-15T22:48:15.924Z,92.59
2022-11-15T22:53:18.936Z,92.90
2022-11-15T22:58:22.222Z,92.77
2022-11-15T23:03:25.206Z,93.25
2022-11-15T23:08:26.956Z,93.48
2022-11-15T23:13:30.793Z,93.43
2022-11-15T23:18:37.783Z,92.82
2022-11-15T23:23:39.498Z,92.75
2022-11-15T23:28:41.161Z,92.65
2022-11-15T23:33:58.061Z,92.91
2022-11-15T23:38:59.789Z,93.03
2022-11-15T23:44:01.754Z,93.03
2022-11-15T23:49:03.954Z,93.07
2022-11-15T23:54:06.289Z,93.12
2022-11-15T23:59:08.652Z,93.36
